createdAt,value
2016-06-04T00:00:30.823Z,83.91
2016-06-04T00:01:30.825Z,83.91
2016-06-04T00:02:31.078Z,84
2016-06-04T00:03:44.944Z,84.86
2016-06-04T00:04:31.116Z,84
2016-06-04T00:05:31.071Z,84
2016-06-04T00:06:30.886Z,84.28
2016-06-04T00:07:30.905Z,84.95
2016-06-04T00:08:30.922Z,84.48
2016-06-04T00:09:30.910Z,84.95
2016-06-04T00:10:30.913Z,84.58
2016-06-04T00:11:30.962Z,84.48
2016-06-04T00:13:30.968Z,85.05
2016-06-04T00:14:30.970Z,84.58
2016-06-04T00:15:45.037Z,84.58
2016-06-04T00:16:31.006Z,85.34
2016-06-04T00:17:31.196Z,84.58
2016-06-04T00:18:31.199Z,84.77
2016-06-04T00:19:31.217Z,84.58
2016-06-04T00:20:30.877Z,84.67
2016-06-04T00:21:31.239Z,84.67
2016-06-04T00:22:31.039Z,85.25
2016-06-04T00:23:31.041Z,85.34
2016-06-04T00:24:31.262Z,84.86
2016-06-04T00:25:31.062Z,85.05
2016-06-04T00:26:31.143Z,84.86
2016-06-04T00:28:31.085Z,84.95
2016-06-04T00:29:31.089Z,85.44
2016-06-04T00:30:31.091Z,84.91
2016-06-04T00:31:31.109Z,84.44
2016-06-04T00:32:31.111Z,84.91
2016-06-04T00:33:31.130Z,85.01
2016-06-04T00:34:31.117Z,85.11
2016-06-04T00:35:31.136Z,85.01
2016-06-04T00:36:31.138Z,85.01
2016-06-04T00:37:31.391Z,85.11
2016-06-04T00:38:31.160Z,85.11
2016-06-04T00:39:31.366Z,85.01
2016-06-04T00:40:31.165Z,84.82
2016-06-04T00:41:31.199Z,84.44
2016-06-04T00:42:31.405Z,85.25
2016-06-04T00:43:31.235Z,85.11
2016-06-04T00:44:31.223Z,85.25
2016-06-04T00:45:31.459Z,85.44
2016-06-04T00:46:31.635Z,85.3
2016-06-04T00:47:31.449Z,84.95
2016-06-04T00:48:31.468Z,85.05
2016-06-04T00:49:31.486Z,85.05
2016-06-04T00:50:31.270Z,85.05
2016-06-04T00:51:31.273Z,84.72
2016-06-04T00:52:31.290Z,85.05
2016-06-04T00:53:31.341Z,85.21
2016-06-04T00:54:31.312Z,85.34
2016-06-04T00:55:31.314Z,84.58
2016-06-04T00:56:31.317Z,84.77
2016-06-04T00:57:31.320Z,84.77
2016-06-04T00:58:31.339Z,84.67
2016-06-04T00:59:31.368Z,84.58
2016-06-04T01:00:31.608Z,84.67
2016-06-04T01:01:31.456Z,84.82
2016-06-04T01:02:31.493Z,84.86
2016-06-04T01:03:31.529Z,84.38
2016-06-04T01:04:31.760Z,84.53
2016-06-04T01:05:31.588Z,84.38
2016-06-04T01:06:31.603Z,84.67
2016-06-04T01:07:31.617Z,84.38
2016-06-04T01:08:31.647Z,84.58
2016-06-04T01:09:31.658Z,84.48
2016-06-04T01:10:31.884Z,84.38
2016-06-04T01:11:31.719Z,84.28
2016-06-04T01:12:31.710Z,84.38
2016-06-04T01:13:31.921Z,84.34
2016-06-04T01:14:31.958Z,84.58
2016-06-04T01:15:31.743Z,84.58
2016-06-04T01:16:31.997Z,84.91
2016-06-04T01:17:31.985Z,84.67
2016-06-04T01:18:31.787Z,84.91
2016-06-04T01:19:32.009Z,84.82
2016-06-04T01:20:32.028Z,84.34
2016-06-04T01:21:31.813Z,84.82
2016-06-04T01:22:31.816Z,84.82
2016-06-04T01:23:31.850Z,84.53
2016-06-04T01:24:31.853Z,84.53
2016-06-04T01:25:31.856Z,84.34
2016-06-04T01:27:32.284Z,84.82
2016-06-04T01:28:31.881Z,84.53
2016-06-04T01:29:31.728Z,84.53
2016-06-04T01:30:31.887Z,84.53
2016-06-04T01:31:32.109Z,84.63
2016-06-04T01:32:31.907Z,84.77
2016-06-04T01:33:31.910Z,84.82
2016-06-04T01:34:31.912Z,84.34
2016-06-04T01:35:31.463Z,84.25
2016-06-04T01:36:32.325Z,84.63
2016-06-04T01:37:31.937Z,84.72
2016-06-04T01:38:32.565Z,84.82
2016-06-04T01:39:32.192Z,84.72
2016-06-04T01:40:32.367Z,84.58
2016-06-04T01:41:32.026Z,84.63
2016-06-04T01:42:32.200Z,84.82
2016-06-04T01:43:32.406Z,84.63
2016-06-04T01:44:32.003Z,84.82
2016-06-04T01:45:32.021Z,84.91
2016-06-04T01:46:32.024Z,84.77
2016-06-04T01:48:32.061Z,84.38
2016-06-04T01:49:32.047Z,84.25
2016-06-04T01:50:32.050Z,84.38
2016-06-04T01:51:32.271Z,84.82
2016-06-04T01:52:32.477Z,84.63
2016-06-04T01:53:32.089Z,84.95
2016-06-04T01:54:31.638Z,84.63
2016-06-04T01:55:46.191Z,84.53
2016-06-04T01:57:32.116Z,84.63
2016-06-04T01:58:32.150Z,84.58
2016-06-04T01:59:32.137Z,84.53
2016-06-04T02:00:32.154Z,84.63
2016-06-04T02:01:32.565Z,84.53
2016-06-04T02:02:32.176Z,84.53
2016-06-04T02:03:32.412Z,84.53
2016-06-04T02:04:32.213Z,84.44
2016-06-04T02:05:32.434Z,84.48
2016-06-04T02:06:46.331Z,84.72
2016-06-04T02:07:32.206Z,84.34
2016-06-04T02:08:31.754Z,84.53
2016-06-04T02:09:32.241Z,84.34
2016-06-04T02:10:46.310Z,84.63
2016-06-04T02:11:46.858Z,84.63
2016-06-04T02:12:32.280Z,84.77
2016-06-04T02:13:32.690Z,84.63
2016-06-04T02:14:32.286Z,84.67
2016-06-04T02:15:32.289Z,84.91
2016-06-04T02:16:32.307Z,84.91
2016-06-04T02:17:32.310Z,84.82
2016-06-04T02:18:32.313Z,84.34
2016-06-04T02:19:32.534Z,84.53
2016-06-04T02:20:32.333Z,84.67
2016-06-04T02:21:32.524Z,84.34
2016-06-04T02:22:32.339Z,84.25
2016-06-04T02:23:32.561Z,84.82
2016-06-04T02:24:32.361Z,84.72
2016-06-04T02:25:32.363Z,84.82
2016-06-04T02:26:32.412Z,84.82
2016-06-04T02:27:31.946Z,84.82
2016-06-04T02:28:32.433Z,84.72
2016-06-04T02:29:32.170Z,84.63
2016-06-04T02:30:46.504Z,84.82
2016-06-04T02:31:32.660Z,84.82
2016-06-04T02:32:32.444Z,84.72
2016-06-04T02:33:32.868Z,84.53
2016-06-04T02:34:46.531Z,84.53
2016-06-04T02:35:32.484Z,84.72
2016-06-04T02:36:32.487Z,84.63
2016-06-04T02:37:32.911Z,84.72
2016-06-04T02:38:32.506Z,84.72
2016-06-04T02:39:32.510Z,84.63
2016-06-04T02:41:32.547Z,84.72
2016-06-04T02:42:32.534Z,84.44
2016-06-04T02:43:32.083Z,84.72
2016-06-04T02:44:32.539Z,84.72
2016-06-04T02:45:32.558Z,84.25
2016-06-04T02:46:32.997Z,84.53
2016-06-04T02:47:32.578Z,84.34
2016-06-04T02:48:32.768Z,84.63
2016-06-04T02:49:32.599Z,84.34
2016-06-04T02:50:32.602Z,84.91
2016-06-04T02:51:32.605Z,84.82
2016-06-04T02:52:32.622Z,84.63
2016-06-04T02:53:32.625Z,84.63
2016-06-04T02:54:32.628Z,84.53
2016-06-04T02:55:32.835Z,84.63
2016-06-04T02:56:33.962Z,84.53
2016-06-04T02:57:32.855Z,84.53
2016-06-04T02:58:32.873Z,84.91
2016-06-04T02:59:32.876Z,84.63
2016-06-04T03:00:32.894Z,84.91
2016-06-04T03:01:32.882Z,84.53
2016-06-04T03:02:32.696Z,84.53
2016-06-04T03:03:33.106Z,84.72
2016-06-04T03:04:46.796Z,84.82
2016-06-04T03:05:46.799Z,84.82
2016-06-04T03:06:47.067Z,84.82
2016-06-04T03:08:32.979Z,84.82
2016-06-04T03:09:32.762Z,84.63
2016-06-04T03:10:32.781Z,84.91
2016-06-04T03:11:32.783Z,84.91
2016-06-04T03:12:32.786Z,84.34
2016-06-04T03:13:32.804Z,84.53
2016-06-04T03:14:32.807Z,84.63
2016-06-04T03:15:33.028Z,84.53
2016-06-04T03:16:32.812Z,84.63
2016-06-04T03:17:32.831Z,84.53
2016-06-04T03:18:32.849Z,84.82
2016-06-04T03:19:32.868Z,84.91
2016-06-04T03:20:32.855Z,84.82
2016-06-04T03:21:32.857Z,84.34
2016-06-04T03:22:32.876Z,84.44
2016-06-04T03:23:32.878Z,84.91
2016-06-04T03:24:32.897Z,84.53
2016-06-04T03:25:33.102Z,84.53
2016-06-04T03:27:33.124Z,84.53
2016-06-04T03:28:47.205Z,84.53
2016-06-04T03:29:32.957Z,84.72
2016-06-04T03:30:33.163Z,84.44
2016-06-04T03:31:32.978Z,84.72
2016-06-04T03:32:33.169Z,84.53
2016-06-04T03:34:33.190Z,84.72
2016-06-04T03:35:32.988Z,84.72
2016-06-04T03:36:32.991Z,84.72
2016-06-04T03:37:33.009Z,84.34
2016-06-04T03:38:33.012Z,84.44
2016-06-04T03:39:33.218Z,85.01
2016-06-04T03:40:33.034Z,84.53
2016-06-04T03:41:32.895Z,84.53
2016-06-04T03:42:33.273Z,84.53
2016-06-04T03:43:33.056Z,84.53
2016-06-04T03:44:33.075Z,84.63
2016-06-04T03:46:33.472Z,84.53
2016-06-04T03:47:33.131Z,84.44
2016-06-04T03:48:33.117Z,84.44
2016-06-04T03:49:32.964Z,84.44
2016-06-04T03:50:32.982Z,84.34
2016-06-04T03:51:33.141Z,84.63
2016-06-04T03:52:33.143Z,84.63
2016-06-04T03:53:33.147Z,84.53
2016-06-04T03:54:33.555Z,84.25
2016-06-04T03:56:33.919Z,84.72
2016-06-04T03:57:33.204Z,84.34
2016-06-04T03:58:47.269Z,84.44
2016-06-04T03:59:47.475Z,84.53
2016-06-04T04:00:47.493Z,84.44
2016-06-04T04:01:47.902Z,84.82
2016-06-04T04:02:33.249Z,84.82
2016-06-04T04:03:33.252Z,84.63
2016-06-04T04:05:33.273Z,84.25
2016-06-04T04:06:33.276Z,84.05
2016-06-04T04:07:33.278Z,83.86
2016-06-04T04:08:33.281Z,83.86
2016-06-04T04:09:33.533Z,83.91
2016-06-04T04:10:34.301Z,84.15
2016-06-04T04:11:33.539Z,83.81
2016-06-04T04:12:33.745Z,84.09
2016-06-04T04:14:33.750Z,83.95
2016-06-04T04:15:33.346Z,83.81
2016-06-04T04:16:33.348Z,84.19
2016-06-04T04:17:33.601Z,84
2016-06-04T04:18:33.370Z,83.91
2016-06-04T04:19:33.575Z,83.81
2016-06-04T04:20:33.797Z,84.09
2016-06-04T04:21:33.425Z,83.33
2016-06-04T04:22:34.053Z,83.42
2016-06-04T04:23:33.852Z,83.42
2016-06-04T04:24:33.449Z,83.91
2016-06-04T04:25:33.842Z,83.52
2016-06-04T04:26:34.408Z,83.52
2016-06-04T04:27:33.863Z,83.71
2016-06-04T04:28:33.678Z,83.81
2016-06-04T04:29:33.463Z,83.33
2016-06-04T04:30:33.480Z,83.61
2016-06-04T04:31:33.701Z,83.33
2016-06-04T04:32:33.501Z,83.52
2016-06-04T04:33:33.504Z,83.23
2016-06-04T04:34:33.507Z,83.04
2016-06-04T04:35:33.524Z,83.04
2016-06-04T04:36:33.527Z,83.52
2016-06-04T04:37:33.546Z,82.94
2016-06-04T04:38:33.579Z,82.94
2016-06-04T04:39:33.568Z,82.85
2016-06-04T04:40:33.788Z,82.94
2016-06-04T04:41:33.620Z,82.85
2016-06-04T04:42:33.590Z,82.94
2016-06-04T04:43:33.593Z,82.94
2016-06-04T04:44:33.612Z,82.94
2016-06-04T04:45:33.646Z,82.94
2016-06-04T04:46:47.914Z,83.23
2016-06-04T04:47:48.323Z,83.14
2016-06-04T04:48:33.841Z,83.04
2016-06-04T04:49:33.672Z,83.04
2016-06-04T04:50:33.675Z,82.85
2016-06-04T04:51:33.678Z,83.14
2016-06-04T04:52:33.695Z,83.27
2016-06-04T04:53:33.698Z,83.08
2016-06-04T04:54:33.717Z,82.7
2016-06-04T04:55:33.720Z,82.7
2016-06-04T04:56:34.144Z,82.6
2016-06-04T04:57:33.724Z,82.41
2016-06-04T04:58:33.744Z,82.6
2016-06-04T04:59:33.761Z,82.51
2016-06-04T05:00:33.763Z,82.12
2016-06-04T05:01:33.766Z,82.21
2016-06-04T05:02:33.988Z,82.41
2016-06-04T05:03:33.991Z,82.21
2016-06-04T05:04:34.010Z,81.84
2016-06-04T05:05:33.371Z,82.03
2016-06-04T05:07:33.861Z,82.12
2016-06-04T05:08:34.067Z,81.84
2016-06-04T05:09:33.851Z,82.21
2016-06-04T05:10:33.885Z,82.03
2016-06-04T05:11:34.121Z,81.16
2016-06-04T05:12:34.140Z,81.41
2016-06-04T05:13:33.909Z,81.93
2016-06-04T05:14:34.005Z,81.64
2016-06-04T05:15:33.929Z,81.74
2016-06-04T05:16:33.931Z,82.03
2016-06-04T05:17:33.951Z,81.64
2016-06-04T05:18:34.156Z,81.84
2016-06-04T05:19:33.956Z,81.93
2016-06-04T05:20:33.975Z,82.12
2016-06-04T05:21:33.978Z,82.12
2016-06-04T05:22:33.980Z,81.64
2016-06-04T05:23:33.997Z,81.07
2016-06-04T05:24:34.032Z,81.26
2016-06-04T05:25:34.019Z,81.07
2016-06-04T05:26:34.256Z,81.54
2016-06-04T05:27:34.680Z,81.45
2016-06-04T05:28:34.042Z,81.45
2016-06-04T05:29:34.280Z,81.54
2016-06-04T05:30:34.079Z,81.45
2016-06-04T05:31:34.082Z,81.35
2016-06-04T05:32:34.100Z,81.16
2016-06-04T05:33:34.088Z,81.26
2016-06-04T05:34:34.090Z,81.26
2016-06-04T05:35:34.311Z,81.16
2016-06-04T05:36:34.126Z,81.35
2016-06-04T05:37:34.130Z,81.07
2016-06-04T05:38:34.554Z,81.16
2016-06-04T05:39:34.744Z,81.45
2016-06-04T05:40:34.560Z,81.35
2016-06-04T05:41:34.171Z,80.87
2016-06-04T05:42:34.174Z,80.87
2016-06-04T05:43:34.223Z,81.45
2016-06-04T05:44:34.195Z,81.01
2016-06-04T05:45:34.417Z,81.59
2016-06-04T05:46:34.247Z,81.68
2016-06-04T05:47:34.453Z,80.53
2016-06-04T05:48:34.456Z,80.73
2016-06-04T05:49:33.787Z,81.01
2016-06-04T05:50:48.336Z,81.1
2016-06-04T05:52:34.279Z,80.91
2016-06-04T05:53:34.531Z,80.73
2016-06-04T05:54:34.331Z,80.24
2016-06-04T05:55:34.350Z,79.67
2016-06-04T05:56:34.836Z,79.57
2016-06-04T05:57:48.824Z,80.34
2016-06-04T05:58:34.577Z,80.15
2016-06-04T05:59:34.376Z,80.15
2016-06-04T06:00:34.378Z,80.15
2016-06-04T06:01:34.381Z,80.34
2016-06-04T06:02:34.383Z,80.91
2016-06-04T06:03:34.387Z,80.73
2016-06-04T06:04:34.405Z,80.66
2016-06-04T06:05:34.408Z,80.47
2016-06-04T06:06:34.832Z,80.19
2016-06-04T06:08:34.696Z,80.28
2016-06-04T06:09:34.699Z,80.09
2016-06-04T06:10:34.546Z,80.09
2016-06-04T06:11:34.737Z,80.09
2016-06-04T06:12:34.504Z,80.22
2016-06-04T06:13:34.507Z,80.32
2016-06-04T06:14:34.510Z,80.13
2016-06-04T06:15:34.529Z,80.13
2016-06-04T06:16:34.531Z,80.42
2016-06-04T06:17:34.549Z,80.07
2016-06-04T06:18:34.959Z,79.69
2016-06-04T06:19:34.976Z,79.5
2016-06-04T06:20:35.589Z,79.88
2016-06-04T06:21:34.607Z,79.21
2016-06-04T06:22:48.906Z,79.5
2016-06-04T06:23:34.628Z,79.11
2016-06-04T06:24:34.646Z,78.73
2016-06-04T06:25:35.086Z,77.42
2016-06-04T06:26:34.403Z,78.53
2016-06-04T06:27:34.670Z,78.73
2016-06-04T06:28:34.672Z,78.44
2016-06-04T06:29:34.738Z,78.63
2016-06-04T06:30:34.725Z,78.25
2016-06-04T06:31:48.790Z,78.63
2016-06-04T06:32:34.949Z,78.63
2016-06-04T06:33:34.749Z,78.34
2016-06-04T06:35:34.769Z,78.09
2016-06-04T06:36:34.991Z,78.25
2016-06-04T06:37:34.541Z,77.81
2016-06-04T06:38:34.793Z,78.48
2016-06-04T06:39:34.827Z,78.28
2016-06-04T06:40:34.830Z,78.38
2016-06-04T06:41:35.223Z,78.09
2016-06-04T06:42:34.851Z,78.19
2016-06-04T06:43:49.354Z,78.58
2016-06-04T06:44:35.309Z,78.19
2016-06-04T06:45:34.890Z,78.19
2016-06-04T06:46:34.909Z,77.71
2016-06-04T06:47:34.912Z,77.81
2016-06-04T06:48:49.195Z,77.61
2016-06-04T06:49:34.948Z,78.28
2016-06-04T06:50:35.356Z,77.42
2016-06-04T06:51:35.157Z,78
2016-06-04T06:52:34.972Z,77.9
2016-06-04T06:53:35.178Z,78.19
2016-06-04T06:54:49.070Z,77.51
2016-06-04T06:55:35.839Z,77.51
2016-06-04T06:56:35.029Z,78.28
2016-06-04T06:57:35.031Z,78.48
2016-06-04T06:58:35.034Z,78.38
2016-06-04T06:59:34.897Z,77.86
2016-06-04T07:00:35.056Z,77.9
2016-06-04T07:01:35.075Z,78.58
2016-06-04T07:02:35.077Z,78.73
2016-06-04T07:03:35.095Z,78.48
2016-06-04T07:04:49.191Z,78.25
2016-06-04T07:05:35.147Z,78.34
2016-06-04T07:06:49.213Z,78.53
2016-06-04T07:07:49.419Z,79.02
2016-06-04T07:08:35.171Z,78.73
2016-06-04T07:09:35.173Z,78.73
2016-06-04T07:10:35.176Z,78.83
2016-06-04T07:11:35.382Z,78.73
2016-06-04T07:12:35.196Z,79.4
2016-06-04T07:13:35.543Z,79.3
2016-06-04T07:14:35.641Z,80.17
2016-06-04T07:15:35.237Z,80.27
2016-06-04T07:16:35.457Z,80.07
2016-06-04T07:17:35.867Z,79.5
2016-06-04T07:18:35.307Z,79.5
2016-06-04T07:19:35.341Z,79.6
2016-06-04T07:20:35.500Z,79.69
2016-06-04T07:21:35.315Z,79.25
2016-06-04T07:22:35.334Z,79.21
2016-06-04T07:23:35.337Z,79.3
2016-06-04T07:24:36.151Z,78.77
2016-06-04T07:25:35.341Z,78.67
2016-06-04T07:26:35.657Z,78.48
2016-06-04T07:27:35.206Z,78.73
2016-06-04T07:28:35.615Z,78.63
2016-06-04T07:29:35.603Z,78.53
2016-06-04T07:30:35.417Z,78.77
2016-06-04T07:31:35.420Z,78.96
2016-06-04T07:32:35.422Z,78.38
2016-06-04T07:33:35.488Z,78.38
2016-06-04T07:34:35.460Z,78.09
2016-06-04T07:35:35.463Z,78
2016-06-04T07:36:35.699Z,78.28
2016-06-04T07:37:35.483Z,78.58
2016-06-04T07:38:35.330Z,78.77
2016-06-04T07:39:35.520Z,78.96
2016-06-04T07:40:35.538Z,78.96
2016-06-04T07:41:36.229Z,78.86
2016-06-04T07:42:35.732Z,77.71
2016-06-04T07:43:35.563Z,77.9
2016-06-04T07:44:35.768Z,78.28
2016-06-04T07:45:35.801Z,78.09
2016-06-04T07:46:35.601Z,77.42
2016-06-04T07:48:35.623Z,77.51
2016-06-04T07:49:35.468Z,77.61
2016-06-04T07:50:35.690Z,77.36
2016-06-04T07:51:35.662Z,78
2016-06-04T07:52:35.664Z,78.42
2016-06-04T07:53:35.682Z,78.33
2016-06-04T07:54:35.684Z,78.03
2016-06-04T07:55:35.907Z,78.81
2016-06-04T07:56:36.144Z,78.33
2016-06-04T07:57:35.756Z,78.61
2016-06-04T07:58:35.587Z,77.56
2016-06-04T08:00:35.764Z,77.75
2016-06-04T08:01:35.970Z,77.56
2016-06-04T08:02:35.769Z,76.98
2016-06-04T08:03:35.772Z,76.98
2016-06-04T08:04:35.853Z,77.94
2016-06-04T08:05:35.808Z,77.17
2016-06-04T08:06:35.811Z,77.84
2016-06-04T08:07:35.830Z,77.75
2016-06-04T08:08:36.255Z,77.5
2016-06-04T08:09:36.100Z,76.73
2016-06-04T08:10:36.494Z,75.73
2016-06-04T08:11:35.871Z,76.4
2016-06-04T08:12:50.858Z,76.82
2016-06-04T08:13:36.455Z,75.57
2016-06-04T08:14:35.942Z,75.76
2016-06-04T08:15:36.133Z,75.76
2016-06-04T08:16:35.932Z,75.76
2016-06-04T08:17:35.951Z,74.32
2016-06-04T08:18:35.953Z,74.8
2016-06-04T08:19:36.206Z,75.38
2016-06-04T08:20:36.005Z,74.8
2016-06-04T08:21:36.226Z,74.9
2016-06-04T08:22:36.026Z,75.28
2016-06-04T08:23:36.028Z,75.32
2016-06-04T08:24:36.032Z,74.84
2016-06-04T08:25:50.628Z,74.93
2016-06-04T08:26:37.334Z,75.42
2016-06-04T08:27:36.087Z,75.99
2016-06-04T08:28:36.089Z,75.23
2016-06-04T08:29:35.936Z,75.42
2016-06-04T08:30:36.110Z,76.28
2016-06-04T08:31:50.206Z,75.99
2016-06-04T08:32:36.147Z,74.45
2016-06-04T08:33:36.164Z,74.65
2016-06-04T08:34:36.168Z,74.65
2016-06-04T08:35:36.186Z,74.3
2016-06-04T08:36:38.251Z,73.05
2016-06-04T08:37:36.207Z,73.91
2016-06-04T08:38:36.413Z,73.72
2016-06-04T08:39:36.618Z,73.53
2016-06-04T08:40:36.230Z,73.24
2016-06-04T08:41:36.483Z,72.75
2016-06-04T08:42:36.282Z,73.33
2016-06-04T08:43:36.285Z,73.72
2016-06-04T08:44:36.289Z,74.1
2016-06-04T08:45:50.588Z,74.01
2016-06-04T08:46:36.310Z,73.53
2016-06-04T08:47:36.327Z,73.43
2016-06-04T08:48:36.330Z,73.62
2016-06-04T08:49:36.787Z,74.05
2016-06-04T08:50:50.648Z,74.68
2016-06-04T08:51:36.588Z,74.72
2016-06-04T08:52:36.404Z,73.57
2016-06-04T08:53:36.609Z,73.27
2016-06-04T08:54:36.440Z,72.6
2016-06-04T08:55:36.428Z,72.41
2016-06-04T08:56:36.445Z,72.31
2016-06-04T08:57:36.683Z,71.92
2016-06-04T08:58:36.717Z,72.41
2016-06-04T08:59:36.484Z,70.86
2016-06-04T09:00:36.503Z,72.12
2016-06-04T09:01:36.506Z,71.25
2016-06-04T09:02:36.525Z,72.02
2016-06-04T09:03:36.589Z,71.44
2016-06-04T09:04:36.545Z,70.38
2016-06-04T09:05:36.564Z,70.28
2016-06-04T09:06:36.817Z,68.74
2016-06-04T09:07:36.803Z,70.57
2016-06-04T09:08:36.619Z,70.76
2016-06-04T09:09:50.887Z,70.86
2016-06-04T09:10:36.639Z,71.09
2016-06-04T09:11:36.642Z,70.8
2016-06-04T09:12:36.505Z,71.28
2016-06-04T09:14:36.682Z,70.61
2016-06-04T09:15:38.699Z,71.09
2016-06-04T09:16:37.313Z,69.93
2016-06-04T09:18:36.754Z,69.55
2016-06-04T09:19:37.164Z,69.93
2016-06-04T09:20:38.307Z,69.55
2016-06-04T09:21:36.779Z,69.84
2016-06-04T09:23:37.018Z,69.55
2016-06-04T09:24:36.818Z,70.03
2016-06-04T09:25:38.446Z,70.51
2016-06-04T09:26:51.151Z,70.7
2016-06-04T09:27:37.076Z,70.7
2016-06-04T09:28:36.969Z,70.8
2016-06-04T09:29:37.098Z,69.93
2016-06-04T09:30:36.897Z,70.03
2016-06-04T09:31:36.914Z,70.32
2016-06-04T09:32:36.917Z,71.19
2016-06-04T09:33:37.140Z,71.38
2016-06-04T09:34:36.486Z,71.77
2016-06-04T09:38:37.028Z,70.06
2016-06-04T09:39:37.030Z,69.97
2016-06-04T09:40:37.033Z,70.36
2016-06-04T09:41:37.036Z,69.39
2016-06-04T09:42:37.211Z,69.58
2016-06-04T09:43:37.369Z,70.2
2016-06-04T09:44:37.310Z,69.23
2016-06-04T09:46:37.533Z,68.07
2016-06-04T09:47:37.146Z,68.46
2016-06-04T09:48:37.148Z,68.55
2016-06-04T09:49:37.151Z,68.17
2016-06-04T09:51:37.422Z,68.94
2016-06-04T09:52:37.221Z,69.71
2016-06-04T09:53:37.239Z,69.13
2016-06-04T09:54:37.462Z,69.07
2016-06-04T09:55:51.729Z,68.46
2016-06-04T09:56:37.263Z,68.26
2016-06-04T09:57:37.890Z,67.88
2016-06-04T09:58:37.676Z,68.4
2016-06-04T09:59:37.693Z,68.78
2016-06-04T10:00:37.509Z,68.88
2016-06-04T10:01:37.355Z,68.68
2016-06-04T10:02:37.326Z,68.88
2016-06-04T10:03:51.439Z,68.88
2016-06-04T10:04:37.770Z,68.78
2016-06-04T10:05:36.929Z,68.24
2016-06-04T10:06:37.679Z,67.85
2016-06-04T10:07:51.569Z,68.33
2016-06-04T10:08:51.803Z,68.52
2016-06-04T10:09:37.786Z,68.56
2016-06-04T10:10:37.820Z,68.27
2016-06-04T10:11:37.474Z,67.98
2016-06-04T10:12:37.846Z,67.53
2016-06-04T10:13:37.563Z,66.56
2016-06-04T10:14:37.700Z,66.85
2016-06-04T10:15:37.724Z,66.78
2016-06-04T10:16:37.746Z,65.53
2016-06-04T10:17:37.798Z,65.34
2016-06-04T10:18:37.788Z,66.14
2016-06-04T10:19:37.826Z,65.66
2016-06-04T10:20:37.831Z,65.47
2016-06-04T10:21:39.117Z,64.04
2016-06-04T10:22:37.855Z,62.88
2016-06-04T10:23:37.875Z,63.49
2016-06-04T10:24:38.520Z,62.72
2016-06-04T10:25:37.914Z,62.04
2016-06-04T10:26:37.932Z,62.33
2016-06-04T10:27:37.936Z,60.88
2016-06-04T10:28:38.204Z,59.06
2016-06-04T10:29:38.192Z,59.94
2016-06-04T10:30:52.069Z,58.45
2016-06-04T10:31:38.244Z,59.61
2016-06-04T10:32:38.419Z,58.16
2016-06-04T10:33:38.046Z,59.42
2016-06-04T10:34:38.455Z,61.07
2016-06-04T10:35:38.318Z,58.84
2016-06-04T10:36:38.335Z,60.3
2016-06-04T10:37:39.854Z,60
2016-06-04T10:38:38.388Z,60.97
2016-06-04T10:39:38.188Z,61.46
2016-06-04T10:41:38.193Z,61.29
2016-06-04T10:42:38.837Z,61.19
2016-06-04T10:43:38.105Z,60.13
2016-06-04T10:44:38.998Z,58.97
2016-06-04T10:45:38.235Z,57.51
2016-06-04T10:46:38.331Z,57.25
2016-06-04T10:48:38.306Z,57.15
2016-06-04T10:49:38.370Z,55.31
2016-06-04T10:50:38.342Z,53.17
2016-06-04T10:51:38.376Z,53.08
2016-06-04T10:52:39.036Z,53.75
2016-06-04T10:53:38.803Z,54.53
2016-06-04T10:54:38.400Z,54.92
2016-06-04T10:55:40.527Z,54.92
2016-06-04T10:56:38.452Z,56.09
2016-06-04T10:57:38.486Z,54.94
2016-06-04T10:58:38.488Z,53.1
2016-06-04T10:59:38.508Z,54.75
2016-06-04T11:01:39.153Z,53.2
2016-06-04T11:02:38.563Z,53.59
2016-06-04T11:03:38.566Z,50.77
2016-06-04T11:04:38.568Z,50.87
2016-06-04T11:05:38.805Z,52.72
2016-06-04T11:06:38.604Z,51.93
2016-06-04T11:07:39.107Z,51.06
2016-06-04T11:08:38.657Z,52.42
2016-06-04T11:09:38.690Z,49.32
2016-06-04T11:10:38.927Z,49.22
2016-06-04T11:12:38.746Z,49.41
2016-06-04T11:13:39.576Z,49.87
2016-06-04T11:14:39.360Z,50.26
2016-06-04T11:15:39.176Z,49.87
2016-06-04T11:16:39.054Z,49.39
2016-06-04T11:17:39.259Z,50.94
2016-06-04T11:18:38.840Z,49.49
2016-06-04T11:19:39.093Z,51.04
2016-06-04T11:21:38.879Z,48.59
2016-06-04T11:23:38.931Z,50.99
2016-06-04T11:24:38.684Z,51.57
2016-06-04T11:25:38.953Z,51.47
2016-06-04T11:26:38.970Z,51.86
2016-06-04T11:27:40.020Z,51.47
2016-06-04T11:28:39.008Z,51.47
2016-06-04T11:29:39.011Z,50.41
2016-06-04T11:31:39.063Z,52.15
2016-06-04T11:32:39.283Z,52.25
2016-06-04T11:33:39.271Z,53.02
2016-06-04T11:34:39.102Z,53.19
2016-06-04T11:36:39.357Z,53.29
2016-06-04T11:37:39.156Z,52.22
2016-06-04T11:38:39.160Z,51.93
2016-06-04T11:39:53.459Z,52.9
2016-06-04T11:40:39.399Z,53.77
2016-06-04T11:41:39.432Z,54.06
2016-06-04T11:42:39.232Z,53.29
2016-06-04T11:43:39.234Z,53.29
2016-06-04T11:44:39.660Z,54.06
2016-06-04T11:45:39.271Z,53.49
2016-06-04T11:46:39.695Z,53.39
2016-06-04T11:47:39.324Z,53.97
2016-06-04T11:48:39.530Z,53.49
2016-06-04T11:49:39.329Z,52.9
2016-06-04T11:50:39.785Z,53.58
2016-06-04T11:51:39.398Z,54.35
2016-06-04T11:52:39.400Z,54.06
2016-06-04T11:54:39.453Z,54.35
2016-06-04T11:55:39.439Z,53.77
2016-06-04T11:56:39.472Z,53.39
2016-06-04T11:57:39.758Z,52.32
2016-06-04T11:58:39.494Z,53.12
2016-06-04T11:59:39.497Z,53.12
2016-06-04T12:00:39.531Z,54.11
2016-06-04T12:01:39.721Z,53.73
2016-06-04T12:02:39.567Z,54.09
2016-06-04T12:04:39.808Z,56.25
2016-06-04T12:05:39.607Z,55.96
2016-06-04T12:06:41.766Z,56.96
2016-06-04T12:07:39.846Z,56.47
2016-06-04T12:08:53.756Z,57.15
2016-06-04T12:09:39.680Z,56.21
2016-06-04T12:10:39.683Z,55.92
2016-06-04T12:11:41.388Z,56.34
2016-06-04T12:12:39.735Z,54.88
2016-06-04T12:13:39.738Z,53.42
2016-06-04T12:14:40.178Z,53.22
2016-06-04T12:15:39.774Z,53.93
2016-06-04T12:16:39.324Z,53.54
2016-06-04T12:17:39.811Z,51.92
2016-06-04T12:18:39.814Z,50.85
2016-06-04T12:20:39.710Z,47.37
2016-06-04T12:21:39.900Z,47.86
2016-06-04T12:22:39.903Z,48.05
2016-06-04T12:23:39.858Z,48.44
2016-06-04T12:24:39.939Z,48.27
2016-06-04T12:25:40.379Z,49.73
2016-06-04T12:26:39.975Z,50.02
2016-06-04T12:27:39.979Z,50.9
2016-06-04T12:28:54.684Z,50.43
2016-06-04T12:29:40.031Z,49.95
2016-06-04T12:30:40.049Z,50.24
2016-06-04T12:31:40.270Z,48.9
2016-06-04T12:32:54.352Z,48.34
2016-06-04T12:33:40.307Z,47.85
2016-06-04T12:34:54.435Z,46.88
2016-06-04T12:35:40.141Z,47.46
2016-06-04T12:36:40.613Z,48.63
2016-06-04T12:37:40.411Z,48.24
2016-06-04T12:38:54.477Z,47.85
2016-06-04T12:39:40.230Z,47.34
2016-06-04T12:40:40.232Z,47.44
2016-06-04T12:41:54.735Z,47.92
2016-06-04T12:42:40.285Z,47.25
2016-06-04T12:43:40.506Z,48.32
2016-06-04T12:44:40.305Z,48.71
2016-06-04T12:45:40.526Z,48.78
2016-06-04T12:46:40.374Z,47.42
2016-06-04T12:47:40.376Z,47.8
2016-06-04T12:48:40.395Z,46.83
2016-06-04T12:49:54.490Z,45.94
2016-06-04T12:50:40.431Z,46.81
2016-06-04T12:51:40.449Z,48.05
2016-06-04T12:52:40.670Z,46.88
2016-06-04T12:53:40.704Z,47.74
2016-06-04T12:54:40.739Z,48.39
2016-06-04T12:56:41.369Z,52.2
2016-06-04T12:57:40.559Z,53.27
2016-06-04T12:58:40.797Z,56.05
2016-06-04T12:59:54.674Z,56.45
2016-06-04T13:00:40.630Z,56.9
2016-06-04T13:01:40.680Z,58.62
2016-06-04T13:02:40.854Z,59.46
2016-06-04T13:03:40.669Z,58.98
2016-06-04T13:04:40.703Z,59.63
2016-06-04T13:05:40.722Z,61.92
2016-06-04T13:06:40.724Z,63.27
2016-06-04T13:07:40.274Z,64.4
2016-06-04T13:08:54.823Z,65.47
2016-06-04T13:09:40.763Z,66.24
2016-06-04T13:10:40.766Z,67.08
2016-06-04T13:12:40.803Z,67.82
2016-06-04T13:13:40.837Z,68.3
2016-06-04T13:14:40.823Z,68.3
2016-06-04T13:15:40.843Z,68.3
2016-06-04T13:16:55.157Z,68.68
2016-06-04T13:17:41.082Z,68.59
2016-06-04T13:18:40.897Z,68.88
2016-06-04T13:19:41.149Z,69.13
2016-06-04T13:20:40.948Z,68.17
2016-06-04T13:21:40.952Z,68.84
2016-06-04T13:22:41.189Z,68.94
2016-06-04T13:23:40.973Z,68.84
2016-06-04T13:24:40.975Z,69.04
2016-06-04T13:25:40.979Z,69.32
2016-06-04T13:26:41.950Z,69.42
2016-06-04T13:27:41.218Z,69.42
2016-06-04T13:28:41.220Z,70.39
2016-06-04T13:29:41.036Z,70.29
2016-06-04T13:30:41.054Z,70.39
2016-06-04T13:31:41.057Z,70.68
2016-06-04T13:32:40.825Z,71.94
2016-06-04T13:33:41.484Z,71.06
2016-06-04T13:34:55.190Z,71.06